createdAt,value
2022-07-31T00:01:46.202Z,21
2022-07-31T00:08:06.132Z,20.91
2022-07-31T00:14:29.165Z,20.83
2022-07-31T00:20:49.145Z,20.8
2022-07-31T00:27:12.163Z,20.76
2022-07-31T00:33:32.142Z,20.68
2022-07-31T00:39:55.144Z,20.61
2022-07-31T00:46:15.163Z,20.54
2022-07-31T00:52:38.143Z,20.42
2022-07-31T00:58:58.195Z,20.33
2022-07-31T01:05:21.148Z,20.21
2022-07-31T01:11:41.192Z,20.04
2022-07-31T01:18:04.154Z,19.95
2022-07-31T01:24:24.172Z,19.9
2022-07-31T01:30:50.351Z,19.85
2022-07-31T01:37:07.193Z,19.74
2022-07-31T01:43:30.149Z,19.66
2022-07-31T01:49:50.152Z,19.58
2022-07-31T01:56:13.160Z,19.47
2022-07-31T02:02:33.147Z,19.36
2022-07-31T02:08:56.157Z,19.29
2022-07-31T02:15:16.145Z,19.2
2022-07-31T02:21:39.191Z,19.1
2022-07-31T02:27:59.407Z,19.06
2022-07-31T02:34:22.169Z,19.06
2022-07-31T02:40:42.379Z,19.05
2022-07-31T02:47:05.198Z,18.97
2022-07-31T02:53:25.165Z,18.91
2022-07-31T02:59:48.177Z,18.83
2022-07-31T03:06:08.159Z,18.78
2022-07-31T03:12:31.157Z,18.77
2022-07-31T03:18:51.157Z,18.74
2022-07-31T03:25:20.394Z,18.7
2022-07-31T03:31:34.154Z,18.71
2022-07-31T03:37:57.151Z,18.74
2022-07-31T03:44:17.172Z,18.72
2022-07-31T03:50:40.170Z,18.74
2022-07-31T03:57:00.175Z,18.73
2022-07-31T04:13:29.052Z,18.73
2022-07-31T04:19:49.152Z,18.81
2022-07-31T04:26:12.176Z,18.87
2022-07-31T04:32:32.142Z,18.98
2022-07-31T04:38:55.162Z,19.12
2022-07-31T04:45:15.180Z,19.26
2022-07-31T04:51:38.144Z,19.36
2022-07-31T04:57:58.179Z,19.36
2022-07-31T05:04:21.145Z,19.4
2022-07-31T05:10:41.147Z,19.45
2022-07-31T05:17:04.173Z,19.5
2022-07-31T05:23:24.146Z,19.54
2022-07-31T05:29:47.184Z,19.54
2022-07-31T05:36:07.144Z,19.56
2022-07-31T05:42:30.177Z,19.61
2022-07-31T05:48:51.613Z,19.74
2022-07-31T05:55:13.154Z,19.88
2022-07-31T06:01:33.214Z,20.05
2022-07-31T06:07:56.166Z,20.25
2022-07-31T06:14:16.158Z,20.37
2022-07-31T06:20:39.216Z,20.52
2022-07-31T06:26:59.148Z,20.69
2022-07-31T06:33:36.967Z,20.91
2022-07-31T06:39:54.173Z,21.14
2022-07-31T06:46:05.155Z,21.31
2022-07-31T06:52:25.166Z,21.48
2022-07-31T06:58:48.156Z,21.69
2022-07-31T07:05:08.165Z,21.87
2022-07-31T07:11:31.150Z,22.07
2022-07-31T07:17:51.151Z,22.32
2022-07-31T07:24:14.155Z,22.41
2022-07-31T07:30:34.148Z,22.43
2022-07-31T07:36:57.170Z,22.49
2022-07-31T07:43:17.143Z,22.37
2022-07-31T07:49:40.179Z,22.26
2022-07-31T07:56:00.380Z,22.14
2022-07-31T08:02:23.152Z,22.21
2022-07-31T08:08:43.172Z,22.39
2022-07-31T08:15:06.146Z,22.56
2022-07-31T08:21:26.241Z,22.65
2022-07-31T08:27:49.159Z,22.74
2022-07-31T08:34:09.147Z,22.84
2022-07-31T08:40:32.620Z,23.03
2022-07-31T08:46:52.156Z,23.14
2022-07-31T08:53:15.150Z,23.46
2022-07-31T08:59:35.170Z,23.64
2022-07-31T09:05:59.159Z,23.91
2022-07-31T09:12:19.176Z,24.35
2022-07-31T09:18:42.152Z,24.58
2022-07-31T09:25:02.178Z,24.9
2022-07-31T09:31:25.167Z,25.24
2022-07-31T09:37:45.152Z,25.46
2022-07-31T09:44:09.778Z,25.58
2022-07-31T09:50:28.148Z,25.62
2022-07-31T10:14:40.155Z,26.11
2022-07-31T10:21:03.150Z,25.98
2022-07-31T10:27:23.189Z,26.14
2022-07-31T10:33:46.144Z,26.36
2022-07-31T10:40:06.154Z,26.47
2022-07-31T10:46:29.161Z,27
2022-07-31T10:52:49.139Z,26.89
2022-07-31T10:59:12.207Z,26.68
2022-07-31T11:05:32.144Z,26.65
2022-07-31T11:11:55.205Z,26.98
2022-07-31T11:18:23.969Z,27.61
2022-07-31T11:24:39.223Z,28.45
2022-07-31T11:30:59.175Z,28.07
2022-07-31T11:37:22.148Z,27.41
2022-07-31T11:43:42.173Z,27.61
2022-07-31T11:50:05.209Z,27.92
2022-07-31T11:56:25.392Z,27.61
2022-07-31T12:02:48.226Z,27.67
2022-07-31T12:09:08.147Z,27.68
2022-07-31T12:15:31.173Z,27.73
2022-07-31T12:21:51.142Z,28.15
2022-07-31T12:28:14.145Z,28.26
2022-07-31T12:34:34.168Z,28.49
2022-07-31T12:40:57.145Z,28.88
2022-07-31T12:47:17.172Z,28.98
2022-07-31T12:53:40.172Z,29.03
2022-07-31T13:00:00.162Z,29.62
2022-07-31T13:06:23.193Z,29.91
2022-07-31T13:12:43.154Z,29.71
2022-07-31T13:19:06.175Z,29.3
2022-07-31T13:25:26.143Z,29.32
2022-07-31T13:31:49.145Z,29.62
2022-07-31T13:38:09.175Z,29.5
2022-07-31T13:44:32.147Z,30.09
2022-07-31T13:50:52.179Z,30.5
2022-07-31T13:57:15.141Z,30.21
2022-07-31T14:03:35.366Z,29.66
2022-07-31T14:09:58.218Z,29.32
2022-07-31T14:16:18.143Z,29.23
2022-07-31T14:22:41.179Z,29.49
2022-07-31T14:29:04.236Z,29.58
2022-07-31T14:35:24.153Z,29.62
2022-07-31T14:41:44.164Z,29.3
2022-07-31T14:48:07.148Z,29.27
2022-07-31T14:54:27.180Z,29.23
2022-07-31T15:00:50.172Z,29.05
2022-07-31T15:07:32.221Z,29.01
2022-07-31T15:13:36.008Z,29.15
2022-07-31T15:19:53.148Z,29.23
2022-07-31T15:26:16.178Z,29.3
2022-07-31T15:32:36.190Z,29.08
2022-07-31T15:38:59.173Z,28.7
2022-07-31T15:45:19.144Z,28.64
2022-07-31T15:51:42.155Z,28.46
2022-07-31T16:14:48.674Z,28.74
2022-07-31T16:21:08.148Z,28.56
2022-07-31T16:27:31.175Z,28.35
2022-07-31T16:33:51.163Z,28.24
2022-07-31T16:40:24.635Z,28.43
2022-07-31T16:46:34.174Z,28.66
2022-07-31T16:52:57.152Z,29.03
2022-07-31T16:59:17.164Z,28.54
2022-07-31T17:05:40.169Z,28.11
2022-07-31T17:12:00.213Z,27.76
2022-07-31T17:18:23.179Z,27.55
2022-07-31T17:24:43.165Z,27.39
2022-07-31T17:31:06.151Z,27.28
2022-07-31T17:37:26.179Z,27.41
2022-07-31T17:43:49.837Z,27.61
2022-07-31T17:50:09.171Z,27.68
2022-07-31T17:56:32.183Z,27.35
2022-07-31T18:02:52.149Z,27.03
2022-07-31T18:09:17.607Z,26.73
2022-07-31T18:15:37.145Z,26.51
2022-07-31T18:22:00.183Z,26.38
2022-07-31T18:28:20.157Z,26.25
2022-07-31T18:34:43.154Z,26.15
2022-07-31T18:41:03.186Z,26.02
2022-07-31T18:47:26.152Z,25.93
2022-07-31T18:53:46.189Z,25.84
2022-07-31T19:00:09.158Z,25.75
2022-07-31T19:06:29.479Z,25.67
2022-07-31T19:12:52.148Z,25.56
2022-07-31T19:19:12.165Z,25.44
2022-07-31T19:25:53.884Z,25.33
2022-07-31T19:31:55.151Z,25.24
2022-07-31T19:38:18.167Z,25.14
2022-07-31T19:44:38.139Z,25.04
2022-07-31T19:51:01.184Z,24.94
2022-07-31T19:57:21.152Z,24.82
2022-07-31T20:03:44.199Z,24.7
2022-07-31T20:10:04.146Z,24.6
2022-07-31T20:16:27.138Z,24.49
2022-07-31T20:22:47.188Z,24.4
2022-07-31T20:29:10.138Z,24.33
2022-07-31T20:35:35.238Z,24.25
2022-07-31T20:41:53.173Z,24.16
2022-07-31T20:48:13.134Z,24.08
2022-07-31T20:54:36.189Z,23.97
2022-07-31T21:00:56.245Z,23.87
2022-07-31T21:07:19.151Z,23.78
2022-07-31T21:13:39.169Z,23.69
2022-07-31T21:20:02.159Z,23.62
2022-07-31T21:26:22.200Z,23.57
2022-07-31T21:32:45.146Z,23.54
2022-07-31T21:39:05.138Z,23.5
2022-07-31T21:56:02.131Z,23.43
2022-07-31T22:20:17.136Z,22.76
2022-07-31T22:26:37.176Z,22.67
2022-07-31T22:33:00.153Z,22.58
2022-07-31T22:39:20.142Z,22.49
2022-07-31T22:45:43.178Z,22.46
2022-07-31T22:52:03.493Z,22.44
2022-07-31T22:58:26.146Z,22.41
2022-07-31T23:04:46.166Z,22.41
2022-07-31T23:11:09.146Z,22.4
2022-07-31T23:17:29.182Z,22.41
2022-07-31T23:23:52.147Z,22.4
2022-07-31T23:30:12.208Z,22.43
2022-07-31T23:36:35.145Z,22.44
2022-07-31T23:42:55.203Z,22.43
2022-07-31T23:49:18.175Z,22.39
2022-07-31T23:55:39.245Z,22.34
